sensor_id;sensor_type;location;lat;lon;timestamp;P1;durP1;ratioP1;P2;durP2;ratioP2
80625;SDS011;69982;51.758;5.784;2023-07-29T13:24:03;4.30;;;1.40;;
80625;SDS011;69982;51.758;5.784;2023-07-29T13:26:30;6.40;;;1.50;;
80625;SDS011;69982;51.758;5.784;2023-07-29T13:28:56;3.40;;;1.60;;
80625;SDS011;69982;51.758;5.784;2023-07-29T13:31:22;3.30;;;1.10;;
80625;SDS011;69982;51.758;5.784;2023-07-29T13:33:49;3.60;;;1.20;;
80625;SDS011;69982;51.758;5.784;2023-07-29T13:36:15;2.90;;;1.10;;
80625;SDS011;69982;51.758;5.784;2023-07-29T13:38:41;3.30;;;1.20;;
80625;SDS011;69982;51.758;5.784;2023-07-29T13:41:07;5.30;;;1.50;;
80625;SDS011;69982;51.758;5.784;2023-07-29T13:43:33;3.50;;;1.30;;
80625;SDS011;69982;51.758;5.784;2023-07-29T13:46:00;3.90;;;1.30;;
80625;SDS011;69982;51.758;5.784;2023-07-29T13:48:26;4.60;;;1.50;;
80625;SDS011;69982;51.758;5.784;2023-07-29T13:50:52;4.00;;;1.60;;
80625;SDS011;69982;51.758;5.784;2023-07-29T13:53:18;3.00;;;1.20;;
80625;SDS011;69982;51.758;5.784;2023-07-29T13:55:45;3.30;;;1.30;;
80625;SDS011;69982;51.758;5.784;2023-07-29T13:58:11;5.10;;;1.60;;
80625;SDS011;69982;51.758;5.784;2023-07-29T14:00:38;3.50;;;1.20;;
80625;SDS011;69982;51.758;5.784;2023-07-29T14:03:04;3.20;;;1.20;;
80625;SDS011;69982;51.758;5.784;2023-07-29T14:05:30;4.70;;;1.10;;
80625;SDS011;69982;51.758;5.784;2023-07-29T14:07:56;3.10;;;0.90;;
80625;SDS011;69982;51.758;5.784;2023-07-29T14:10:22;4.00;;;1.30;;
80625;SDS011;69982;51.758;5.784;2023-07-29T14:12:49;3.60;;;0.80;;
80625;SDS011;69982;51.758;5.784;2023-07-29T14:15:16;4.00;;;1.40;;
80625;SDS011;69982;51.758;5.784;2023-07-29T14:17:42;4.00;;;1.20;;
80625;SDS011;69982;51.758;5.784;2023-07-29T14:20:08;2.50;;;1.00;;
80625;SDS011;69982;51.758;5.784;2023-07-29T14:22:35;5.40;;;1.10;;
80625;SDS011;69982;51.758;5.784;2023-07-29T14:25:02;3.40;;;1.00;;
80625;SDS011;69982;51.758;5.784;2023-07-29T14:27:28;2.30;;;0.90;;
80625;SDS011;69982;51.758;5.784;2023-07-29T14:29:55;2.40;;;0.90;;
80625;SDS011;69982;51.758;5.784;2023-07-29T14:32:21;2.90;;;0.70;;
80625;SDS011;69982;51.758;5.784;2023-07-29T14:34:48;3.30;;;0.70;;
80625;SDS011;69982;51.758;5.784;2023-07-29T14:37:15;2.30;;;0.80;;
80625;SDS011;69982;51.758;5.784;2023-07-29T14:39:41;2.30;;;0.70;;
80625;SDS011;69982;51.758;5.784;2023-07-29T14:42:07;3.00;;;1.20;;
80625;SDS011;69982;51.758;5.784;2023-07-29T14:44:34;3.80;;;0.80;;
80625;SDS011;69982;51.758;5.784;2023-07-29T14:47:00;3.10;;;1.00;;
80625;SDS011;69982;51.758;5.784;2023-07-29T14:49:26;2.40;;;0.70;;
80625;SDS011;69982;51.758;5.784;2023-07-29T14:51:53;3.10;;;0.90;;
80625;SDS011;69982;51.758;5.784;2023-07-29T14:54:19;3.70;;;0.90;;
80625;SDS011;69982;51.758;5.784;2023-07-29T14:56:46;2.60;;;0.90;;
80625;SDS011;69982;51.758;5.784;2023-07-29T14:59:12;2.50;;;1.00;;
80625;SDS011;69982;51.758;5.784;2023-07-29T15:01:38;2.70;;;0.80;;
80625;SDS011;69982;51.758;5.784;2023-07-29T15:04:04;2.10;;;0.60;;
80625;SDS011;69982;51.758;5.784;2023-07-29T15:06:31;2.60;;;0.90;;
80625;SDS011;69982;51.758;5.784;2023-07-29T15:08:57;3.60;;;0.80;;
80625;SDS011;69982;51.758;5.784;2023-07-29T15:11:23;2.60;;;0.70;;
80625;SDS011;69982;51.758;5.784;2023-07-29T15:13:50;2.20;;;0.70;;
80625;SDS011;69982;51.758;5.784;2023-07-29T15:16:16;2.70;;;0.90;;
80625;SDS011;69982;51.758;5.784;2023-07-29T15:18:42;2.30;;;0.80;;
80625;SDS011;69982;51.758;5.784;2023-07-29T15:21:08;2.60;;;0.60;;
80625;SDS011;69982;51.758;5.784;2023-07-29T15:23:35;2.50;;;0.60;;
80625;SDS011;69982;51.758;5.784;2023-07-29T15:26:01;2.50;;;0.60;;
80625;SDS011;69982;51.758;5.784;2023-07-29T15:28:27;4.40;;;0.70;;
80625;SDS011;69982;51.758;5.784;2023-07-29T15:30:54;3.20;;;0.90;;
80625;SDS011;69982;51.758;5.784;2023-07-29T15:33:20;2.40;;;0.90;;
80625;SDS011;69982;51.758;5.784;2023-07-29T15:35:46;2.80;;;0.70;;
80625;SDS011;69982;51.758;5.784;2023-07-29T15:38:14;3.60;;;0.80;;
80625;SDS011;69982;51.758;5.784;2023-07-29T15:40:40;3.00;;;0.70;;
80625;SDS011;69982;51.758;5.784;2023-07-29T15:43:07;2.40;;;0.80;;
80625;SDS011;69982;51.758;5.784;2023-07-29T15:45:33;3.80;;;0.90;;
80625;SDS011;69982;51.758;5.784;2023-07-29T15:47:59;3.30;;;0.70;;
80625;SDS011;69982;51.758;5.784;2023-07-29T15:50:26;2.50;;;1.10;;
80625;SDS011;69982;51.758;5.784;2023-07-29T15:52:52;2.40;;;0.90;;
80625;SDS011;69982;51.758;5.784;2023-07-29T15:55:18;2.40;;;0.80;;
80625;SDS011;69982;51.758;5.784;2023-07-29T15:57:45;4.20;;;0.90;;
80625;SDS011;69982;51.758;5.784;2023-07-29T16:00:11;3.30;;;1.00;;
80625;SDS011;69982;51.758;5.784;2023-07-29T16:02:38;3.90;;;1.00;;
80625;SDS011;69982;51.758;5.784;2023-07-29T16:05:07;4.90;;;1.10;;
80625;SDS011;69982;51.758;5.784;2023-07-29T16:07:34;2.60;;;0.90;;
80625;SDS011;69982;51.758;5.784;2023-07-29T16:10:00;2.70;;;0.80;;
80625;SDS011;69982;51.758;5.784;2023-07-29T16:12:26;3.60;;;1.00;;
80625;SDS011;69982;51.758;5.784;2023-07-29T16:14:52;2.70;;;0.90;;
80625;SDS011;69982;51.758;5.784;2023-07-29T16:17:18;4.30;;;1.40;;
80625;SDS011;69982;51.758;5.784;2023-07-29T16:19:52;3.00;;;1.20;;
80625;SDS011;69982;51.758;5.784;2023-07-29T16:22:23;5.00;;;1.30;;
80625;SDS011;69982;51.758;5.784;2023-07-29T16:24:49;3.20;;;1.30;;
80625;SDS011;69982;51.758;5.784;2023-07-29T16:27:15;3.20;;;1.30;;
80625;SDS011;69982;51.758;5.784;2023-07-29T16:29:42;2.90;;;1.10;;
80625;SDS011;69982;51.758;5.784;2023-07-29T16:32:08;4.20;;;1.10;;
80625;SDS011;69982;51.758;5.784;2023-07-29T16:34:35;3.40;;;1.30;;
80625;SDS011;69982;51.758;5.784;2023-07-29T16:37:02;3.00;;;1.20;;
80625;SDS011;69982;51.758;5.784;2023-07-29T16:39:28;4.20;;;1.60;;
80625;SDS011;69982;51.758;5.784;2023-07-29T16:41:55;4.00;;;1.50;;
80625;SDS011;69982;51.758;5.784;2023-07-29T16:44:24;5.50;;;1.80;;
80625;SDS011;69982;51.758;5.784;2023-07-29T16:46:50;4.60;;;1.80;;
80625;SDS011;69982;51.758;5.784;2023-07-29T16:49:16;4.40;;;2.00;;
80625;SDS011;69982;51.758;5.784;2023-07-29T16:51:48;3.30;;;1.60;;
80625;SDS011;69982;51.758;5.784;2023-07-29T16:54:16;4.80;;;1.50;;
80625;SDS011;69982;51.758;5.784;2023-07-29T16:56:44;4.30;;;1.80;;
80625;SDS011;69982;51.758;5.784;2023-07-29T16:59:12;3.70;;;1.70;;
80625;SDS011;69982;51.758;5.784;2023-07-29T17:01:39;5.10;;;1.70;;
80625;SDS011;69982;51.758;5.784;2023-07-29T17:04:05;5.20;;;1.60;;
80625;SDS011;69982;51.758;5.784;2023-07-29T17:06:31;4.00;;;1.60;;
80625;SDS011;69982;51.758;5.784;2023-07-29T17:08:58;3.40;;;1.50;;
80625;SDS011;69982;51.758;5.784;2023-07-29T17:11:24;3.60;;;1.70;;
80625;SDS011;69982;51.758;5.784;2023-07-29T17:13:50;3.20;;;1.50;;
80625;SDS011;69982;51.758;5.784;2023-07-29T17:16:17;3.50;;;1.50;;
80625;SDS011;69982;51.758;5.784;2023-07-29T17:18:43;3.00;;;1.30;;
80625;SDS011;69982;51.758;5.784;2023-07-29T17:21:09;3.40;;;1.40;;
80625;SDS011;69982;51.758;5.784;2023-07-29T17:23:35;5.00;;;1.70;;
80625;SDS011;69982;51.758;5.784;2023-07-29T17:26:01;4.50;;;1.90;;
80625;SDS011;69982;51.758;5.784;2023-07-29T17:28:28;2.70;;;1.20;;
80625;SDS011;69982;51.758;5.784;2023-07-29T17:30:54;3.50;;;1.60;;
80625;SDS011;69982;51.758;5.784;2023-07-29T17:33:20;4.70;;;1.40;;
80625;SDS011;69982;51.758;5.784;2023-07-29T17:35:46;3.20;;;1.50;;
80625;SDS011;69982;51.758;5.784;2023-07-29T17:38:13;3.80;;;1.60;;
80625;SDS011;69982;51.758;5.784;2023-07-29T17:40:39;3.70;;;1.30;;
80625;SDS011;69982;51.758;5.784;2023-07-29T17:43:07;3.40;;;1.70;;
80625;SDS011;69982;51.758;5.784;2023-07-29T17:45:33;3.40;;;1.20;;
80625;SDS011;69982;51.758;5.784;2023-07-29T17:47:59;3.60;;;1.40;;
80625;SDS011;69982;51.758;5.784;2023-07-29T17:50:26;4.60;;;1.60;;
80625;SDS011;69982;51.758;5.784;2023-07-29T17:52:53;3.80;;;1.60;;
80625;SDS011;69982;51.758;5.784;2023-07-29T17:55:21;4.90;;;1.80;;
80625;SDS011;69982;51.758;5.784;2023-07-29T17:57:47;5.30;;;2.30;;
80625;SDS011;69982;51.758;5.784;2023-07-29T18:00:14;6.40;;;2.20;;
80625;SDS011;69982;51.758;5.784;2023-07-29T18:02:40;4.50;;;1.90;;
80625;SDS011;69982;51.758;5.784;2023-07-29T18:05:07;4.20;;;2.10;;
80625;SDS011;69982;51.758;5.784;2023-07-29T18:07:33;5.90;;;2.00;;
80625;SDS011;69982;51.758;5.784;2023-07-29T18:09:59;3.30;;;1.40;;
80625;SDS011;69982;51.758;5.784;2023-07-29T18:12:25;5.10;;;1.40;;
80625;SDS011;69982;51.758;5.784;2023-07-29T18:14:52;3.20;;;1.50;;
80625;SDS011;69982;51.758;5.784;2023-07-29T18:17:18;3.50;;;1.70;;
80625;SDS011;69982;51.758;5.784;2023-07-29T18:19:44;4.90;;;2.00;;
80625;SDS011;69982;51.758;5.784;2023-07-29T18:22:11;4.70;;;2.40;;
80625;SDS011;69982;51.758;5.784;2023-07-29T18:24:37;4.80;;;2.40;;
80625;SDS011;69982;51.758;5.784;2023-07-29T18:27:04;4.90;;;2.60;;
80625;SDS011;69982;51.758;5.784;2023-07-29T18:29:31;6.20;;;2.00;;
80625;SDS011;69982;51.758;5.784;2023-07-29T18:31:58;3.90;;;1.80;;
80625;SDS011;69982;51.758;5.784;2023-07-29T18:34:24;5.00;;;2.00;;
80625;SDS011;69982;51.758;5.784;2023-07-29T18:36:50;4.60;;;2.00;;
80625;SDS011;69982;51.758;5.784;2023-07-29T18:39:16;4.90;;;1.40;;
80625;SDS011;69982;51.758;5.784;2023-07-29T18:41:43;4.20;;;1.80;;
80625;SDS011;69982;51.758;5.784;2023-07-29T18:44:09;4.30;;;1.80;;
80625;SDS011;69982;51.758;5.784;2023-07-29T18:46:35;5.00;;;2.10;;
80625;SDS011;69982;51.758;5.784;2023-07-29T18:49:02;4.40;;;1.90;;
80625;SDS011;69982;51.758;5.784;2023-07-29T18:51:31;4.70;;;2.30;;
80625;SDS011;69982;51.758;5.784;2023-07-29T18:53:57;6.40;;;2.10;;
80625;SDS011;69982;51.758;5.784;2023-07-29T18:56:24;6.40;;;1.90;;
80625;SDS011;69982;51.758;5.784;2023-07-29T18:58:50;4.30;;;1.80;;
80625;SDS011;69982;51.758;5.784;2023-07-29T19:01:16;4.50;;;2.10;;
80625;SDS011;69982;51.758;5.784;2023-07-29T19:03:43;6.10;;;2.20;;
80625;SDS011;69982;51.758;5.784;2023-07-29T19:06:09;3.50;;;1.80;;
80625;SDS011;69982;51.758;5.784;2023-07-29T19:08:36;3.10;;;1.30;;
80625;SDS011;69982;51.758;5.784;2023-07-29T19:11:02;4.90;;;1.20;;
80625;SDS011;69982;51.758;5.784;2023-07-29T19:13:29;3.80;;;1.20;;
80625;SDS011;69982;51.758;5.784;2023-07-29T19:15:55;3.80;;;1.10;;
80625;SDS011;69982;51.758;5.784;2023-07-29T19:18:22;3.00;;;1.10;;
80625;SDS011;69982;51.758;5.784;2023-07-29T19:20:51;4.70;;;1.20;;
80625;SDS011;69982;51.758;5.784;2023-07-29T19:23:19;3.70;;;1.20;;
80625;SDS011;69982;51.758;5.784;2023-07-29T19:25:46;3.40;;;1.10;;
80625;SDS011;69982;51.758;5.784;2023-07-29T19:28:14;6.00;;;1.60;;
80625;SDS011;69982;51.758;5.784;2023-07-29T19:30:40;3.50;;;1.20;;
80625;SDS011;69982;51.758;5.784;2023-07-29T19:33:07;7.10;;;1.70;;
80625;SDS011;69982;51.758;5.784;2023-07-29T19:35:33;7.00;;;1.80;;
80625;SDS011;69982;51.758;5.784;2023-07-29T19:38:00;5.00;;;1.70;;
80625;SDS011;69982;51.758;5.784;2023-07-29T19:40:26;8.10;;;1.70;;
80625;SDS011;69982;51.758;5.784;2023-07-29T19:42:53;8.00;;;1.90;;
80625;SDS011;69982;51.758;5.784;2023-07-29T19:45:20;7.50;;;1.70;;
80625;SDS011;69982;51.758;5.784;2023-07-29T19:47:47;7.00;;;1.80;;
80625;SDS011;69982;51.758;5.784;2023-07-29T19:50:14;6.80;;;1.50;;
80625;SDS011;69982;51.758;5.784;2023-07-29T19:52:40;9.60;;;1.70;;
80625;SDS011;69982;51.758;5.784;2023-07-29T19:55:07;10.40;;;2.20;;
80625;SDS011;69982;51.758;5.784;2023-07-29T19:57:33;5.70;;;1.50;;
80625;SDS011;69982;51.758;5.784;2023-07-29T19:59:59;5.80;;;1.40;;
80625;SDS011;69982;51.758;5.784;2023-07-29T20:02:26;6.50;;;1.30;;
80625;SDS011;69982;51.758;5.784;2023-07-29T20:07:22;7.40;;;1.60;;
80625;SDS011;69982;51.758;5.784;2023-07-29T20:09:49;7.20;;;1.40;;
80625;SDS011;69982;51.758;5.784;2023-07-29T20:12:15;4.70;;;1.60;;
80625;SDS011;69982;51.758;5.784;2023-07-29T20:14:42;8.70;;;1.50;;
80625;SDS011;69982;51.758;5.784;2023-07-29T20:17:08;6.60;;;1.50;;
80625;SDS011;69982;51.758;5.784;2023-07-29T20:19:34;7.60;;;1.50;;
80625;SDS011;69982;51.758;5.784;2023-07-29T20:22:01;10.30;;;1.60;;
80625;SDS011;69982;51.758;5.784;2023-07-29T20:24:27;7.90;;;1.40;;
80625;SDS011;69982;51.758;5.784;2023-07-29T20:26:53;7.70;;;1.20;;
80625;SDS011;69982;51.758;5.784;2023-07-29T20:29:19;8.70;;;1.30;;
80625;SDS011;69982;51.758;5.784;2023-07-29T20:31:46;10.60;;;1.40;;
80625;SDS011;69982;51.758;5.784;2023-07-29T20:34:14;7.70;;;1.30;;
80625;SDS011;69982;51.758;5.784;2023-07-29T20:36:40;6.70;;;1.20;;
80625;SDS011;69982;51.758;5.784;2023-07-29T20:39:06;5.60;;;1.50;;
80625;SDS011;69982;51.758;5.784;2023-07-29T20:41:32;7.80;;;1.50;;
80625;SDS011;69982;51.758;5.784;2023-07-29T20:43:59;7.30;;;1.70;;
80625;SDS011;69982;51.758;5.784;2023-07-29T20:46:25;5.00;;;1.30;;
80625;SDS011;69982;51.758;5.784;2023-07-29T20:48:51;8.20;;;1.70;;
80625;SDS011;69982;51.758;5.784;2023-07-29T20:51:18;7.70;;;1.50;;
80625;SDS011;69982;51.758;5.784;2023-07-29T20:53:45;4.80;;;1.40;;
80625;SDS011;69982;51.758;5.784;2023-07-29T20:56:12;6.60;;;1.40;;
80625;SDS011;69982;51.758;5.784;2023-07-29T21:08:24;4.40;;;1.60;;
80625;SDS011;69982;51.758;5.784;2023-07-29T21:10:51;5.50;;;1.30;;
80625;SDS011;69982;51.758;5.784;2023-07-29T21:13:18;5.50;;;1.50;;
80625;SDS011;69982;51.758;5.784;2023-07-29T21:15:51;5.90;;;1.30;;
80625;SDS011;69982;51.758;5.784;2023-07-29T21:18:19;5.30;;;1.50;;
80625;SDS011;69982;51.758;5.784;2023-07-29T21:20:46;8.50;;;1.60;;
80625;SDS011;69982;51.758;5.784;2023-07-29T21:23:13;6.50;;;1.60;;
80625;SDS011;69982;51.758;5.784;2023-07-29T21:25:39;6.90;;;1.70;;
80625;SDS011;69982;51.758;5.784;2023-07-29T21:28:06;12.60;;;1.90;;
80625;SDS011;69982;51.758;5.784;2023-07-29T21:30:32;8.10;;;2.40;;
80625;SDS011;69982;51.758;5.784;2023-07-29T21:32:58;8.10;;;1.80;;
80625;SDS011;69982;51.758;5.784;2023-07-29T21:35:25;10.60;;;2.00;;
80625;SDS011;69982;51.758;5.784;2023-07-29T21:37:51;9.40;;;1.90;;
80625;SDS011;69982;51.758;5.784;2023-07-29T21:40:17;7.50;;;1.90;;
80625;SDS011;69982;51.758;5.784;2023-07-29T21:42:43;11.50;;;1.90;;
80625;SDS011;69982;51.758;5.784;2023-07-29T21:45:10;8.20;;;2.00;;
80625;SDS011;69982;51.758;5.784;2023-07-29T21:47:36;8.80;;;2.20;;
80625;SDS011;69982;51.758;5.784;2023-07-29T21:50:03;9.20;;;2.70;;
80625;SDS011;69982;51.758;5.784;2023-07-29T21:52:32;7.90;;;2.30;;
80625;SDS011;69982;51.758;5.784;2023-07-29T21:54:58;9.50;;;2.10;;
80625;SDS011;69982;51.758;5.784;2023-07-29T21:57:25;8.00;;;2.00;;
80625;SDS011;69982;51.758;5.784;2023-07-29T21:59:51;9.30;;;2.10;;
80625;SDS011;69982;51.758;5.784;2023-07-29T22:02:17;11.00;;;2.30;;
80625;SDS011;69982;51.758;5.784;2023-07-29T22:04:44;6.90;;;2.20;;
80625;SDS011;69982;51.758;5.784;2023-07-29T22:07:11;7.40;;;1.80;;
80625;SDS011;69982;51.758;5.784;2023-07-29T22:09:37;9.30;;;2.10;;
80625;SDS011;69982;51.758;5.784;2023-07-29T22:12:04;6.60;;;2.20;;
80625;SDS011;69982;51.758;5.784;2023-07-29T22:14:30;6.80;;;2.30;;
80625;SDS011;69982;51.758;5.784;2023-07-29T22:16:58;7.80;;;2.50;;
80625;SDS011;69982;51.758;5.784;2023-07-29T22:19:24;9.10;;;2.30;;
80625;SDS011;69982;51.758;5.784;2023-07-29T22:21:50;6.90;;;2.30;;
80625;SDS011;69982;51.758;5.784;2023-07-29T22:24:17;5.80;;;2.00;;
80625;SDS011;69982;51.758;5.784;2023-07-29T22:26:44;7.50;;;2.50;;
80625;SDS011;69982;51.758;5.784;2023-07-29T22:29:10;8.00;;;2.20;;
80625;SDS011;69982;51.758;5.784;2023-07-29T22:31:37;6.80;;;2.10;;
80625;SDS011;69982;51.758;5.784;2023-07-29T22:34:03;9.40;;;2.30;;
80625;SDS011;69982;51.758;5.784;2023-07-29T22:36:30;8.80;;;2.40;;
80625;SDS011;69982;51.758;5.784;2023-07-29T22:38:56;11.50;;;2.50;;
80625;SDS011;69982;51.758;5.784;2023-07-29T22:41:22;7.10;;;2.20;;
80625;SDS011;69982;51.758;5.784;2023-07-29T22:43:49;10.80;;;2.40;;
80625;SDS011;69982;51.758;5.784;2023-07-29T22:46:15;8.40;;;2.30;;
80625;SDS011;69982;51.758;5.784;2023-07-29T22:48:41;8.70;;;2.50;;
80625;SDS011;69982;51.758;5.784;2023-07-29T22:51:08;7.30;;;2.20;;
80625;SDS011;69982;51.758;5.784;2023-07-29T22:53:34;11.00;;;2.30;;
80625;SDS011;69982;51.758;5.784;2023-07-29T22:56:00;12.00;;;2.50;;
80625;SDS011;69982;51.758;5.784;2023-07-29T22:58:26;7.00;;;2.80;;
80625;SDS011;69982;51.758;5.784;2023-07-29T23:00:54;8.80;;;2.20;;
80625;SDS011;69982;51.758;5.784;2023-07-29T23:03:21;6.60;;;1.90;;
80625;SDS011;69982;51.758;5.784;2023-07-29T23:05:48;6.40;;;2.10;;
80625;SDS011;69982;51.758;5.784;2023-07-29T23:08:14;10.70;;;2.40;;
80625;SDS011;69982;51.758;5.784;2023-07-29T23:10:41;12.60;;;2.00;;
80625;SDS011;69982;51.758;5.784;2023-07-29T23:13:08;8.30;;;2.00;;
80625;SDS011;69982;51.758;5.784;2023-07-29T23:15:35;7.90;;;1.90;;
80625;SDS011;69982;51.758;5.784;2023-07-29T23:18:03;6.70;;;2.00;;
80625;SDS011;69982;51.758;5.784;2023-07-29T23:20:30;9.40;;;1.90;;
80625;SDS011;69982;51.758;5.784;2023-07-29T23:22:58;6.30;;;1.70;;
80625;SDS011;69982;51.758;5.784;2023-07-29T23:25:25;8.40;;;2.20;;
80625;SDS011;69982;51.758;5.784;2023-07-29T23:27:53;7.90;;;2.20;;
80625;SDS011;69982;51.758;5.784;2023-07-29T23:30:19;7.00;;;2.10;;
80625;SDS011;69982;51.758;5.784;2023-07-29T23:32:45;10.10;;;2.00;;
80625;SDS011;69982;51.758;5.784;2023-07-29T23:35:12;8.60;;;2.10;;
80625;SDS011;69982;51.758;5.784;2023-07-29T23:37:38;7.90;;;2.10;;
80625;SDS011;69982;51.758;5.784;2023-07-29T23:40:05;6.10;;;2.00;;
80625;SDS011;69982;51.758;5.784;2023-07-29T23:42:31;6.90;;;2.20;;
80625;SDS011;69982;51.758;5.784;2023-07-29T23:44:58;6.90;;;1.90;;
80625;SDS011;69982;51.758;5.784;2023-07-29T23:47:24;6.60;;;1.80;;
80625;SDS011;69982;51.758;5.784;2023-07-29T23:49:51;8.00;;;2.60;;
80625;SDS011;69982;51.758;5.784;2023-07-29T23:52:17;7.80;;;2.30;;
80625;SDS011;69982;51.758;5.784;2023-07-29T23:54:43;7.60;;;2.30;;
80625;SDS011;69982;51.758;5.784;2023-07-29T23:57:09;8.00;;;2.20;;
80625;SDS011;69982;51.758;5.784;2023-07-29T23:59:35;7.50;;;2.20;;
